createdAt,value
2018-08-19T00:00:24.931Z,63.47
2018-08-19T00:02:37.187Z,62.46
2018-08-19T00:05:04.895Z,63.28
2018-08-19T00:07:17.127Z,63.41
2018-08-19T00:09:31.755Z,62.41
2018-08-19T00:11:45.246Z,62.46
2018-08-19T00:13:57.431Z,63.07
2018-08-19T00:16:10.210Z,62.81
2018-08-19T00:18:22.471Z,62.64
2018-08-19T00:20:34.734Z,62.79
2018-08-19T00:22:47.750Z,62.68
2018-08-19T00:24:59.969Z,63.01
2018-08-19T00:27:12.210Z,62.35
2018-08-19T00:29:30.171Z,62.76
2018-08-19T00:31:42.370Z,63.01
2018-08-19T00:33:54.547Z,63.28
2018-08-19T00:36:23.915Z,63.84
2018-08-19T00:38:36.098Z,63.46
2018-08-19T00:40:48.312Z,63.70
2018-08-19T00:43:00.478Z,63.75
2018-08-19T00:45:13.358Z,64.05
2018-08-19T00:47:25.573Z,63.99
2018-08-19T00:49:37.833Z,64.19
2018-08-19T00:51:55.855Z,64.09
2018-08-19T00:54:08.042Z,65.21
2018-08-19T00:56:20.268Z,64.24
2018-08-19T00:58:32.454Z,65.01
2018-08-19T01:00:44.675Z,65.04
2018-08-19T01:02:56.950Z,64.64
2018-08-19T01:05:09.162Z,65.07
2018-08-19T01:07:21.352Z,64.98
2018-08-19T01:09:33.566Z,65.63
2018-08-19T01:11:45.735Z,65.67
2018-08-19T01:13:57.960Z,65.57
2018-08-19T01:16:10.199Z,64.14
2018-08-19T01:18:22.414Z,64.51
2018-08-19T01:20:34.647Z,64.77
2018-08-19T01:22:46.923Z,65.49
2018-08-19T01:24:59.134Z,65.61
2018-08-19T01:27:11.404Z,65.86
2018-08-19T01:29:34.085Z,64.78
2018-08-19T01:31:46.275Z,65.42
2018-08-19T01:33:58.520Z,64.86
2018-08-19T01:36:10.758Z,65.20
2018-08-19T01:38:22.938Z,66.41
2018-08-19T01:40:35.211Z,66.73
2018-08-19T01:42:47.460Z,66.60
2018-08-19T01:44:59.611Z,66.56
2018-08-19T01:47:11.779Z,65.63
2018-08-19T01:49:24.082Z,66.37
2018-08-19T01:51:36.931Z,65.37
2018-08-19T01:53:49.966Z,66.06
2018-08-19T01:56:02.189Z,65.62
2018-08-19T01:58:14.403Z,65.39
2018-08-19T02:00:26.598Z,65.50
2018-08-19T02:02:52.254Z,64.54
2018-08-19T02:05:05.702Z,64.90
2018-08-19T02:07:17.927Z,66.04
2018-08-19T02:09:30.154Z,65.38
2018-08-19T02:11:46.468Z,66.06
2018-08-19T02:13:58.623Z,66.51
2018-08-19T02:16:10.990Z,66.32
2018-08-19T02:18:23.188Z,66.34
2018-08-19T02:20:38.115Z,67.38
2018-08-19T02:22:54.823Z,67.85
2018-08-19T02:25:07.294Z,66.73
2018-08-19T02:27:19.491Z,66.31
2018-08-19T02:29:36.672Z,66.78
2018-08-19T02:31:48.856Z,67.08
2018-08-19T02:34:01.022Z,67.29
2018-08-19T02:36:14.105Z,67.48
2018-08-19T02:38:26.283Z,68.11
2018-08-19T02:40:38.555Z,67.86
2018-08-19T02:42:50.773Z,67.75
2018-08-19T02:45:04.567Z,67.73
2018-08-19T02:47:17.028Z,67.57
2018-08-19T02:49:29.182Z,68.55
2018-08-19T02:51:41.438Z,67.77
2018-08-19T02:53:53.614Z,68.00
2018-08-19T02:56:05.871Z,67.81
2018-08-19T02:58:21.035Z,67.85
2018-08-19T03:00:33.214Z,67.60
2018-08-19T03:02:45.499Z,67.87
2018-08-19T03:04:58.481Z,69.16
2018-08-19T03:07:10.667Z,69.05
2018-08-19T03:09:22.888Z,68.22
2018-08-19T03:11:35.104Z,68.67
2018-08-19T03:13:47.703Z,68.80
2018-08-19T03:15:59.917Z,69.50
2018-08-19T03:18:12.123Z,69.23
2018-08-19T03:20:24.303Z,69.17
2018-08-19T03:22:36.499Z,68.90
2018-08-19T03:24:48.700Z,69.06
2018-08-19T03:27:00.903Z,69.47
2018-08-19T03:29:18.571Z,69.49
2018-08-19T03:31:30.739Z,69.14
2018-08-19T03:33:42.922Z,69.49
2018-08-19T03:35:55.103Z,70.24
2018-08-19T03:38:11.197Z,69.90
2018-08-19T03:40:25.645Z,70.40
2018-08-19T03:42:37.841Z,69.95
2018-08-19T03:44:50.041Z,70.27
2018-08-19T03:47:06.759Z,70.76
2018-08-19T03:49:18.935Z,70.43
2018-08-19T03:51:31.122Z,70.44
2018-08-19T03:53:43.348Z,69.60
2018-08-19T03:55:55.534Z,70.15
2018-08-19T03:58:09.622Z,70.30
2018-08-19T04:00:21.845Z,70.09
2018-08-19T04:02:34.030Z,69.77
2018-08-19T04:04:46.779Z,70.48
2018-08-19T04:06:58.955Z,70.57
2018-08-19T04:09:11.140Z,70.88
2018-08-19T04:11:23.314Z,71.36
2018-08-19T04:13:37.525Z,71.64
2018-08-19T04:15:49.731Z,72.19
2018-08-19T04:18:01.899Z,71.61
2018-08-19T04:20:14.080Z,71.36
2018-08-19T04:22:26.277Z,71.62
2018-08-19T04:24:38.438Z,70.72
2018-08-19T04:26:50.628Z,71.45
2018-08-19T04:29:04.834Z,71.04
2018-08-19T04:31:23.623Z,71.03
2018-08-19T04:33:36.359Z,70.70
2018-08-19T04:35:48.534Z,70.53
2018-08-19T04:38:00.710Z,71.44
2018-08-19T04:40:12.893Z,71.68
2018-08-19T04:42:25.095Z,70.91
2018-08-19T04:44:37.298Z,71.16
2018-08-19T04:46:49.529Z,71.63
2018-08-19T04:49:01.727Z,71.46
2018-08-19T04:51:13.947Z,71.65
2018-08-19T04:53:26.140Z,71.67
2018-08-19T04:55:38.305Z,71.82
2018-08-19T04:57:50.475Z,71.57
2018-08-19T05:00:02.758Z,71.58
2018-08-19T05:02:15.027Z,71.48
2018-08-19T05:04:27.139Z,70.98
2018-08-19T05:06:39.365Z,71.67
2018-08-19T05:08:51.574Z,70.84
2018-08-19T05:11:03.850Z,71.14
2018-08-19T05:13:16.060Z,71.55
2018-08-19T05:15:28.284Z,71.46
2018-08-19T05:17:40.455Z,70.23
2018-08-19T05:20:01.067Z,70.87
2018-08-19T05:22:14.311Z,70.27
2018-08-19T05:24:26.500Z,70.49
2018-08-19T05:26:38.657Z,70.19
2018-08-19T05:29:04.650Z,69.76
2018-08-19T05:31:16.839Z,68.87
2018-08-19T05:33:29.081Z,68.25
2018-08-19T05:35:41.362Z,68.67
2018-08-19T05:37:53.650Z,68.21
2018-08-19T05:40:05.823Z,67.10
2018-08-19T05:42:18.042Z,67.19
2018-08-19T05:44:32.789Z,66.85
2018-08-19T05:46:44.971Z,66.30
2018-08-19T05:49:01.730Z,65.98
2018-08-19T05:51:13.962Z,65.02
2018-08-19T05:53:26.188Z,64.70
2018-08-19T05:55:38.496Z,63.29
2018-08-19T05:57:50.578Z,63.25
2018-08-19T06:00:08.523Z,63.33
2018-08-19T06:02:29.930Z,62.52
2018-08-19T06:04:42.423Z,63.29
2018-08-19T06:06:59.359Z,62.77
2018-08-19T06:09:11.575Z,62.57
2018-08-19T06:11:23.827Z,62.28
2018-08-19T06:13:36.031Z,61.96
2018-08-19T06:15:48.313Z,61.44
2018-08-19T06:18:00.517Z,61.90
2018-08-19T06:20:12.699Z,61.13
2018-08-19T06:22:30.588Z,61.88
2018-08-19T06:24:42.927Z,60.36
2018-08-19T06:26:55.116Z,59.81
2018-08-19T06:29:07.404Z,58.27
2018-08-19T06:31:19.583Z,58.01
2018-08-19T06:33:31.746Z,58.29
2018-08-19T06:35:43.989Z,58.18
2018-08-19T06:37:56.194Z,58.14
2018-08-19T06:40:10.159Z,57.84
2018-08-19T06:42:22.599Z,57.30
2018-08-19T06:44:34.844Z,56.80
2018-08-19T06:46:47.078Z,55.67
2018-08-19T06:49:04.073Z,54.32
2018-08-19T06:51:16.402Z,54.13
2018-08-19T06:53:28.538Z,53.50
2018-08-19T06:55:40.748Z,53.43
2018-08-19T06:57:54.801Z,52.58
2018-08-19T07:00:12.482Z,52.27
2018-08-19T07:02:24.663Z,52.19
2018-08-19T07:04:38.122Z,52.10
2018-08-19T07:06:50.327Z,50.86
2018-08-19T07:09:03.314Z,50.66
2018-08-19T07:11:15.519Z,50.47
2018-08-19T07:13:27.846Z,51.22
2018-08-19T07:15:41.201Z,49.97
2018-08-19T07:17:53.432Z,47.05
2018-08-19T07:20:07.054Z,47.79
2018-08-19T07:22:20.486Z,48.04
2018-08-19T07:24:33.711Z,47.38
2018-08-19T07:26:45.934Z,46.31
2018-08-19T07:28:58.120Z,45.08
2018-08-19T07:31:10.358Z,46.41
2018-08-19T07:33:22.538Z,45.86
2018-08-19T07:35:34.739Z,44.75
2018-08-19T07:37:46.958Z,45.81
2018-08-19T07:39:59.163Z,44.70
2018-08-19T07:42:11.738Z,44.29
2018-08-19T07:44:24.073Z,44.64
2018-08-19T07:46:36.358Z,44.02
2018-08-19T07:48:48.594Z,43.46
2018-08-19T07:51:00.828Z,43.38
2018-08-19T07:53:13.078Z,43.52
2018-08-19T07:55:25.312Z,44.36
2018-08-19T07:57:39.936Z,42.14
2018-08-19T07:59:52.176Z,44.09
2018-08-19T08:02:04.542Z,43.26
2018-08-19T08:04:16.892Z,44.06
2018-08-19T08:06:30.100Z,43.21
2018-08-19T08:08:42.346Z,43.50
2018-08-19T08:10:54.569Z,43.06
2018-08-19T08:13:08.758Z,43.47
2018-08-19T08:15:21.352Z,43.53
2018-08-19T08:17:33.596Z,42.76
2018-08-19T08:19:49.767Z,43.53
2018-08-19T08:22:06.603Z,43.79
2018-08-19T08:24:18.842Z,44.50
2018-08-19T08:26:31.118Z,43.73
2018-08-19T08:28:50.557Z,44.22
2018-08-19T08:31:06.206Z,44.22
2018-08-19T08:33:18.439Z,44.36
2018-08-19T08:35:30.652Z,44.25
2018-08-19T08:37:42.917Z,43.84
2018-08-19T08:40:00.939Z,42.62
2018-08-19T08:42:13.167Z,43.35
2018-08-19T08:44:25.768Z,44.60
2018-08-19T08:46:37.986Z,42.19
2018-08-19T08:48:51.191Z,41.91
2018-08-19T08:51:03.490Z,42.50
2018-08-19T08:53:15.822Z,42.03
2018-08-19T08:55:28.043Z,41.37
2018-08-19T08:57:40.249Z,40.83
2018-08-19T08:59:52.999Z,41.61
2018-08-19T09:02:05.286Z,39.22
2018-08-19T09:04:17.576Z,39.39
2018-08-19T09:06:29.823Z,39.77
2018-08-19T09:08:42.074Z,40.09
2018-08-19T09:10:55.150Z,38.62
2018-08-19T09:13:07.602Z,39.68
2018-08-19T09:15:19.967Z,39.27
2018-08-19T09:17:32.199Z,39.33
2018-08-19T09:19:44.427Z,37.86
2018-08-19T09:21:56.660Z,38.17
2018-08-19T09:24:08.902Z,38.81
2018-08-19T09:26:21.107Z,37.41
2018-08-19T09:28:33.327Z,37.64
2018-08-19T09:30:45.653Z,37.79
2018-08-19T09:32:59.472Z,35.88
2018-08-19T09:35:11.663Z,35.46
2018-08-19T09:37:23.852Z,36.01
2018-08-19T09:39:36.107Z,34.21
2018-08-19T09:41:48.839Z,33.93
2018-08-19T09:44:01.081Z,32.54
2018-08-19T09:46:13.283Z,33.79
2018-08-19T09:48:25.551Z,35.21
2018-08-19T09:50:38.639Z,33.35
2018-08-19T09:52:50.885Z,35.17
2018-08-19T09:55:08.294Z,33.55
2018-08-19T09:57:20.574Z,34.28
2018-08-19T09:59:32.791Z,34.33
2018-08-19T10:01:45.799Z,34.93
2018-08-19T10:03:58.166Z,34.27
2018-08-19T10:06:10.398Z,34.45
2018-08-19T10:08:23.287Z,33.76
2018-08-19T10:10:36.445Z,32.91
2018-08-19T10:12:48.738Z,34.01
2018-08-19T10:15:00.944Z,35.68
2018-08-19T10:17:13.151Z,34.40
2018-08-19T10:19:25.409Z,33.67
2018-08-19T10:21:37.651Z,34.24
2018-08-19T10:23:50.039Z,31.67
2018-08-19T10:26:02.247Z,32.10
2018-08-19T10:28:14.512Z,32.18
2018-08-19T10:30:26.710Z,33.37
2018-08-19T10:32:39.018Z,33.27
2018-08-19T10:34:51.198Z,33.58
2018-08-19T10:37:04.012Z,32.39
2018-08-19T10:39:16.233Z,32.60
2018-08-19T10:41:28.450Z,32.84
2018-08-19T10:43:40.698Z,32.96
2018-08-19T10:45:52.921Z,33.74
2018-08-19T10:48:07.067Z,31.57
2018-08-19T10:50:23.823Z,32.54
2018-08-19T10:52:37.891Z,31.73
2018-08-19T10:54:50.123Z,32.55
2018-08-19T10:57:16.236Z,32.17
2018-08-19T10:59:28.454Z,30.47
2018-08-19T11:01:40.735Z,32.71
2018-08-19T11:03:53.099Z,32.42
2018-08-19T11:06:05.559Z,32.39
2018-08-19T11:08:17.842Z,31.33
2018-08-19T11:10:30.084Z,31.62
2018-08-19T11:12:42.279Z,31.95
2018-08-19T11:14:54.502Z,31.54
2018-08-19T11:17:06.708Z,33.37
2018-08-19T11:19:18.999Z,32.86
2018-08-19T11:21:39.850Z,31.92
2018-08-19T11:23:52.234Z,30.65
2018-08-19T11:26:04.982Z,31.48
2018-08-19T11:28:28.119Z,33.35
2018-08-19T11:30:40.347Z,31.05
2018-08-19T11:32:53.122Z,31.95
2018-08-19T11:35:05.410Z,32.63
2018-08-19T11:37:17.612Z,33.62
2018-08-19T11:39:35.339Z,32.12
2018-08-19T11:41:47.635Z,32.94
2018-08-19T11:44:08.998Z,31.22
2018-08-19T11:46:21.254Z,31.29
2018-08-19T11:48:33.842Z,32.64
2018-08-19T11:50:46.154Z,33.12
2018-08-19T11:52:58.390Z,32.46
2018-08-19T11:55:10.653Z,31.75
2018-08-19T11:57:23.551Z,32.56
2018-08-19T11:59:40.183Z,33.43
2018-08-19T12:01:52.447Z,33.27
2018-08-19T12:04:07.138Z,32.07
2018-08-19T12:06:20.396Z,33.24
2018-08-19T12:08:32.667Z,32.02
2018-08-19T12:10:44.871Z,33.31
2018-08-19T12:12:58.803Z,33.56
2018-08-19T12:15:11.086Z,33.75
2018-08-19T12:17:23.298Z,32.64
2018-08-19T12:19:38.137Z,33.38
2018-08-19T12:21:52.644Z,32.74
2018-08-19T12:24:15.359Z,32.73
2018-08-19T12:26:28.143Z,33.91
2018-08-19T12:28:40.387Z,32.39
2018-08-19T12:30:52.638Z,33.83
2018-08-19T12:33:21.583Z,33.56
2018-08-19T12:35:33.783Z,34.25
2018-08-19T12:37:46.050Z,34.03
2018-08-19T12:39:58.979Z,34.35
2018-08-19T12:42:11.362Z,33.68
2018-08-19T12:44:23.607Z,33.97
2018-08-19T12:46:35.797Z,35.21
2018-08-19T12:48:48.005Z,34.33
2018-08-19T12:51:02.694Z,34.33
2018-08-19T12:53:14.958Z,35.03
2018-08-19T12:55:27.257Z,34.16
2018-08-19T12:57:40.471Z,35.37
2018-08-19T12:59:56.242Z,34.73
2018-08-19T13:02:08.548Z,35.06
2018-08-19T13:04:20.822Z,35.07
2018-08-19T13:06:33.064Z,33.82
2018-08-19T13:08:45.279Z,33.94
2018-08-19T13:11:00.786Z,34.16
2018-08-19T13:13:13.055Z,34.62
2018-08-19T13:15:28.378Z,34.75
2018-08-19T13:17:40.652Z,34.29
2018-08-19T13:19:58.321Z,34.80
2018-08-19T13:22:10.571Z,34.93
2018-08-19T13:24:28.532Z,36.06
2018-08-19T13:26:40.785Z,35.08
2018-08-19T13:28:54.471Z,34.76
2018-08-19T13:31:06.756Z,34.31
2018-08-19T13:33:18.950Z,33.97
2018-08-19T13:35:31.170Z,35.45
2018-08-19T13:37:43.383Z,34.67
2018-08-19T13:39:55.633Z,34.40
2018-08-19T13:42:07.894Z,34.53
2018-08-19T13:44:20.154Z,34.72
2018-08-19T13:46:32.423Z,34.77
2018-08-19T13:48:44.674Z,34.26
2018-08-19T13:50:56.967Z,34.20
2018-08-19T13:53:09.176Z,34.01
2018-08-19T13:55:21.432Z,34.24
2018-08-19T13:57:33.702Z,34.01
2018-08-19T13:59:45.903Z,34.23
2018-08-19T14:01:58.162Z,33.61
2018-08-19T14:04:10.471Z,32.92
2018-08-19T14:06:22.731Z,34.86
2018-08-19T14:08:34.963Z,34.15
2018-08-19T14:10:47.243Z,34.62
2018-08-19T14:12:59.483Z,34.12
2018-08-19T14:15:11.762Z,33.37
2018-08-19T14:17:24.056Z,34.95
2018-08-19T14:19:36.327Z,34.53
2018-08-19T14:21:48.546Z,33.21
2018-08-19T14:24:01.795Z,34.48
2018-08-19T14:26:14.034Z,34.25
2018-08-19T14:28:26.276Z,34.09
2018-08-19T14:30:38.530Z,33.97
2018-08-19T14:32:50.733Z,34.36
2018-08-19T14:35:04.010Z,33.65
2018-08-19T14:37:16.199Z,32.95
2018-08-19T14:39:28.483Z,34.21
2018-08-19T14:41:40.728Z,34.50
2018-08-19T14:44:01.255Z,32.75
2018-08-19T14:46:13.612Z,34.03
2018-08-19T14:48:25.767Z,33.60
2018-08-19T14:50:41.098Z,34.59
2018-08-19T14:52:53.316Z,34.93
2018-08-19T14:55:06.032Z,33.06
2018-08-19T14:57:18.231Z,33.43
2018-08-19T14:59:30.473Z,32.88
2018-08-19T15:01:43.278Z,32.38
2018-08-19T15:03:57.502Z,33.23
2018-08-19T15:06:09.742Z,33.29
2018-08-19T15:08:21.966Z,33.22
2018-08-19T15:10:34.483Z,32.86
2018-08-19T15:12:46.720Z,33.17
2018-08-19T15:14:59.769Z,33.83
2018-08-19T15:17:12.076Z,32.98
2018-08-19T15:19:24.291Z,34.31
2018-08-19T15:21:36.530Z,33.89
2018-08-19T15:23:48.772Z,33.46
2018-08-19T15:26:01.072Z,33.30
2018-08-19T15:28:13.751Z,33.45
2018-08-19T15:30:27.932Z,33.46
2018-08-19T15:32:40.719Z,33.18
2018-08-19T15:34:52.472Z,33.33
2018-08-19T15:37:04.796Z,33.12
2018-08-19T15:39:17.047Z,33.56
2018-08-19T15:41:29.309Z,33.55
2018-08-19T15:43:41.590Z,33.57
2018-08-19T15:45:53.850Z,33.50
2018-08-19T15:48:07.161Z,33.58
2018-08-19T15:50:20.374Z,33.43
2018-08-19T15:52:32.631Z,33.08
2018-08-19T15:54:52.266Z,34.58
2018-08-19T15:57:04.512Z,33.80
2018-08-19T15:59:16.752Z,34.23
2018-08-19T16:01:30.597Z,34.34
2018-08-19T16:03:42.854Z,33.57
2018-08-19T16:05:55.109Z,34.73
2018-08-19T16:08:07.439Z,35.33
2018-08-19T16:10:19.675Z,35.66
2018-08-19T16:12:32.025Z,34.60
2018-08-19T16:14:44.261Z,34.79
2018-08-19T16:16:57.875Z,34.63
2018-08-19T16:19:10.146Z,34.53
2018-08-19T16:21:22.398Z,35.17
2018-08-19T16:23:34.648Z,35.70
2018-08-19T16:25:46.832Z,35.42
2018-08-19T16:27:59.139Z,35.80
2018-08-19T16:30:11.410Z,35.59
2018-08-19T16:32:23.650Z,35.00
2018-08-19T16:34:35.895Z,34.41
2018-08-19T16:36:48.140Z,34.89
2018-08-19T16:39:00.426Z,34.29
2018-08-19T16:41:12.627Z,35.03
2018-08-19T16:43:24.821Z,34.61
2018-08-19T16:45:37.045Z,34.66
2018-08-19T16:47:49.282Z,35.76
2018-08-19T16:50:01.553Z,35.90
2018-08-19T16:52:13.804Z,35.75
2018-08-19T16:54:26.047Z,35.37
2018-08-19T16:56:38.354Z,34.86
2018-08-19T16:58:50.602Z,34.74
2018-08-19T17:01:02.951Z,35.10
2018-08-19T17:03:33.724Z,35.78
2018-08-19T17:05:45.958Z,35.55
2018-08-19T17:07:58.217Z,35.17
2018-08-19T17:10:10.540Z,35.18
2018-08-19T17:12:22.694Z,35.21
2018-08-19T17:14:34.951Z,36.06
2018-08-19T17:16:47.254Z,36.63
2018-08-19T17:18:59.480Z,36.64
2018-08-19T17:21:11.702Z,35.97
2018-08-19T17:23:24.571Z,36.05
2018-08-19T17:25:36.809Z,36.81
2018-08-19T17:27:49.027Z,37.15
2018-08-19T17:30:01.336Z,36.16
2018-08-19T17:32:13.583Z,36.39
2018-08-19T17:34:25.809Z,36.55
2018-08-19T17:36:38.067Z,36.39
2018-08-19T17:38:50.370Z,36.13
2018-08-19T17:41:03.220Z,36.31
2018-08-19T17:43:15.453Z,36.23
2018-08-19T17:45:27.701Z,36.38
2018-08-19T17:47:39.901Z,36.41
2018-08-19T17:49:52.157Z,36.83
2018-08-19T17:52:04.411Z,36.77
2018-08-19T17:54:22.366Z,36.97
2018-08-19T17:56:34.574Z,37.14
2018-08-19T17:58:47.475Z,37.89
2018-08-19T18:00:59.775Z,37.55
2018-08-19T18:03:12.154Z,37.75
2018-08-19T18:05:24.495Z,37.48
2018-08-19T18:07:36.699Z,38.33
2018-08-19T18:09:54.485Z,38.17
2018-08-19T18:12:06.728Z,38.82
2018-08-19T18:14:19.026Z,38.79
2018-08-19T18:16:31.244Z,38.74
2018-08-19T18:18:44.310Z,38.80
2018-08-19T18:20:56.510Z,38.10
2018-08-19T18:23:28.146Z,38.17
2018-08-19T18:25:41.219Z,39.51
2018-08-19T18:27:53.494Z,39.40
2018-08-19T18:30:05.773Z,39.01
2018-08-19T18:32:18.149Z,38.94
2018-08-19T18:34:30.470Z,39.42
2018-08-19T18:36:42.730Z,40.04
2018-08-19T18:38:55.236Z,39.11
2018-08-19T18:41:07.511Z,39.83
2018-08-19T18:43:19.802Z,40.09
2018-08-19T18:45:32.046Z,40.30
2018-08-19T18:47:50.659Z,40.73
2018-08-19T18:50:07.494Z,42.98
2018-08-19T18:52:19.736Z,43.80
2018-08-19T18:54:32.008Z,44.80
2018-08-19T18:56:44.246Z,46.24
2018-08-19T18:58:56.890Z,45.66
2018-08-19T19:01:10.040Z,46.91
2018-08-19T19:03:22.399Z,47.33
2018-08-19T19:05:42.613Z,46.71
2018-08-19T19:07:56.779Z,46.78
2018-08-19T19:10:09.969Z,46.92
2018-08-19T19:12:22.960Z,48.11
2018-08-19T19:14:35.482Z,47.25
2018-08-19T19:16:50.084Z,49.21
2018-08-19T19:19:02.565Z,48.89
2018-08-19T19:21:15.103Z,48.06
2018-08-19T19:23:31.762Z,48.49
2018-08-19T19:25:44.191Z,48.39
2018-08-19T19:27:56.674Z,48.94
2018-08-19T19:30:08.992Z,47.93
2018-08-19T19:32:23.090Z,48.36
2018-08-19T19:34:35.305Z,48.73
2018-08-19T19:36:47.845Z,48.44
2018-08-19T19:39:00.144Z,48.85
2018-08-19T19:41:12.342Z,48.24
2018-08-19T19:43:24.886Z,49.14
2018-08-19T19:45:44.515Z,48.99
2018-08-19T19:47:56.770Z,49.10
2018-08-19T19:50:08.974Z,49.25
2018-08-19T19:52:21.605Z,50.14
2018-08-19T19:54:33.863Z,50.32
2018-08-19T19:56:46.082Z,49.54
2018-08-19T19:58:58.356Z,49.30
2018-08-19T20:01:10.579Z,50.10
2018-08-19T20:03:23.688Z,49.52
2018-08-19T20:05:35.871Z,50.74
2018-08-19T20:07:48.132Z,51.29
2018-08-19T20:10:00.325Z,49.94
2018-08-19T20:12:18.295Z,50.99
2018-08-19T20:14:34.178Z,51.25
2018-08-19T20:16:46.403Z,51.61
2018-08-19T20:18:58.637Z,51.59
2018-08-19T20:23:37.351Z,51.42
2018-08-19T20:25:49.596Z,52.26
2018-08-19T20:28:07.811Z,51.67
2018-08-19T20:30:20.083Z,52.72
2018-08-19T20:32:32.315Z,52.53
2018-08-19T20:34:44.631Z,53.06
2018-08-19T20:36:56.859Z,52.86
2018-08-19T20:39:09.159Z,52.35
2018-08-19T20:41:21.448Z,53.10
2018-08-19T20:43:33.677Z,53.22
2018-08-19T20:45:46.103Z,52.52
2018-08-19T20:47:58.347Z,53.23
2018-08-19T20:50:10.646Z,53.79
2018-08-19T20:52:45.396Z,52.94
2018-08-19T20:54:57.620Z,53.33
2018-08-19T20:57:09.894Z,53.88
2018-08-19T20:59:27.721Z,53.49
2018-08-19T21:01:39.939Z,54.21
2018-08-19T21:03:52.437Z,55.35
2018-08-19T21:06:04.703Z,55.39
2018-08-19T21:08:17.918Z,54.44
2018-08-19T21:10:30.131Z,54.78
2018-08-19T21:12:42.390Z,55.09
2018-08-19T21:14:54.663Z,55.16
2018-08-19T21:17:06.955Z,55.93
2018-08-19T21:19:19.205Z,56.32
2018-08-19T21:21:31.444Z,56.63
2018-08-19T21:23:43.678Z,56.15
2018-08-19T21:25:59.037Z,56.52
2018-08-19T21:28:11.754Z,57.17
2018-08-19T21:30:24.249Z,56.98
2018-08-19T21:32:36.499Z,55.89
2018-08-19T21:34:48.735Z,56.97
2018-08-19T21:37:00.950Z,56.97
2018-08-19T21:39:13.213Z,57.49
2018-08-19T21:41:41.339Z,56.68
2018-08-19T21:43:53.540Z,56.70
2018-08-19T21:46:05.842Z,57.47
2018-08-19T21:48:18.094Z,56.85
2018-08-19T21:50:30.402Z,56.96
2018-08-19T21:53:04.802Z,57.32
2018-08-19T21:55:17.062Z,58.20
2018-08-19T21:57:29.311Z,57.45
2018-08-19T21:59:41.534Z,57.59
2018-08-19T22:01:57.712Z,57.76
2018-08-19T22:04:09.988Z,57.36
2018-08-19T22:06:22.203Z,56.98
2018-08-19T22:08:34.458Z,56.75
2018-08-19T22:10:47.607Z,57.18
2018-08-19T22:12:59.893Z,58.01
2018-08-19T22:15:12.085Z,58.24
2018-08-19T22:17:24.358Z,58.43
2018-08-19T22:19:36.953Z,58.30
2018-08-19T22:21:49.217Z,57.70
2018-08-19T22:24:01.471Z,57.65
2018-08-19T22:26:14.758Z,57.72
2018-08-19T22:28:26.946Z,58.48
2018-08-19T22:30:39.146Z,58.64
2018-08-19T22:32:51.399Z,59.22
2018-08-19T22:35:03.639Z,58.45
2018-08-19T22:37:15.927Z,59.32
2018-08-19T22:39:28.178Z,58.56
2018-08-19T22:41:40.438Z,58.82
2018-08-19T22:43:53.425Z,58.24
2018-08-19T22:46:05.650Z,59.28
2018-08-19T22:48:33.791Z,59.38
2018-08-19T22:50:45.967Z,58.54
2018-08-19T22:52:58.198Z,59.07
2018-08-19T22:55:10.402Z,60.48
2018-08-19T22:57:22.717Z,60.28
2018-08-19T22:59:34.932Z,60.68
2018-08-19T23:01:47.658Z,60.25
2018-08-19T23:04:01.658Z,61.02
2018-08-19T23:06:13.911Z,60.74
2018-08-19T23:08:27.220Z,60.69
2018-08-19T23:10:39.430Z,59.94
2018-08-19T23:12:51.662Z,61.24
2018-08-19T23:15:15.409Z,60.91
2018-08-19T23:17:27.605Z,60.10
2018-08-19T23:19:39.802Z,59.76
2018-08-19T23:21:51.982Z,60.00
2018-08-19T23:24:04.418Z,60.27
2018-08-19T23:26:16.637Z,60.74
2018-08-19T23:28:28.873Z,61.06
2018-08-19T23:30:41.100Z,61.06
2018-08-19T23:32:53.295Z,61.41
2018-08-19T23:35:05.762Z,61.48
2018-08-19T23:37:17.947Z,61.18
2018-08-19T23:39:30.127Z,60.92
2018-08-19T23:41:42.295Z,60.26
2018-08-19T23:43:54.503Z,60.89
2018-08-19T23:46:06.686Z,60.73
2018-08-19T23:48:18.927Z,61.73
2018-08-19T23:50:31.216Z,62.01
2018-08-19T23:52:43.451Z,61.35
2018-08-19T23:54:55.670Z,61.94
2018-08-19T23:57:07.877Z,61.73
2018-08-19T23:59:35.770Z,62.12
